Terminal Aerodrome Forecast
Issued by NWS

Home | Current Version | Previous Version | Text Only | Print | Product List | Glossary On
Versions: 1 2 3 4 5 6 7 8 9 10 11 12 13 14 15 16 17 18 19
000
FTUS44 KMAF 080520
TAFCNM
TAF
KCNM 080520Z 0806/0906 04010KT P6SM OVC020
     FM080800 03015G25KT P6SM OVC012
      TEMPO 0812/0816 4SM -SN BR
     FM081700 07011KT P6SM OVC035
     FM090000 11008KT P6SM OVC050=

USA.gov is the U.S. government's official web portal to all federal, state and local government web resources and services.